sensor_id;sensor_type;location;lat;lon;timestamp;temperature;humidity
45537;DHT22;31262;51.978;5.924;2022-10-17T00:01:35;17.70;73.40
45537;DHT22;31262;51.978;5.924;2022-10-17T00:04:00;17.80;73.60
45537;DHT22;31262;51.978;5.924;2022-10-17T00:06:26;17.80;73.60
45537;DHT22;31262;51.978;5.924;2022-10-17T00:08:51;17.70;73.60
45537;DHT22;31262;51.978;5.924;2022-10-17T00:11:19;17.70;73.60
45537;DHT22;31262;51.978;5.924;2022-10-17T00:13:46;17.70;74.30
45537;DHT22;31262;51.978;5.924;2022-10-17T00:16:12;17.60;73.60
45537;DHT22;31262;51.978;5.924;2022-10-17T00:18:37;17.60;73.60
45537;DHT22;31262;51.978;5.924;2022-10-17T00:21:03;17.70;73.60
45537;DHT22;31262;51.978;5.924;2022-10-17T00:23:28;17.70;73.70
45537;DHT22;31262;51.978;5.924;2022-10-17T00:25:58;17.70;73.70
45537;DHT22;31262;51.978;5.924;2022-10-17T00:28:24;17.70;73.70
45537;DHT22;31262;51.978;5.924;2022-10-17T00:30:56;17.70;73.70
45537;DHT22;31262;51.978;5.924;2022-10-17T00:33:22;17.70;73.80
45537;DHT22;31262;51.978;5.924;2022-10-17T00:35:47;17.70;73.80
45537;DHT22;31262;51.978;5.924;2022-10-17T00:38:13;17.60;73.80
45537;DHT22;31262;51.978;5.924;2022-10-17T00:40:38;17.70;73.90
45537;DHT22;31262;51.978;5.924;2022-10-17T00:43:03;17.60;73.90
45537;DHT22;31262;51.978;5.924;2022-10-17T00:45:30;17.60;74.00
45537;DHT22;31262;51.978;5.924;2022-10-17T00:48:03;17.60;74.10
45537;DHT22;31262;51.978;5.924;2022-10-17T00:50:29;17.60;74.20
45537;DHT22;31262;51.978;5.924;2022-10-17T00:52:55;17.60;74.30
45537;DHT22;31262;51.978;5.924;2022-10-17T00:55:23;17.60;74.30
45537;DHT22;31262;51.978;5.924;2022-10-17T00:57:49;17.60;74.20
45537;DHT22;31262;51.978;5.924;2022-10-17T01:00:16;17.60;74.20
45537;DHT22;31262;51.978;5.924;2022-10-17T01:02:42;17.60;74.20
45537;DHT22;31262;51.978;5.924;2022-10-17T01:05:07;17.60;74.20
45537;DHT22;31262;51.978;5.924;2022-10-17T01:07:33;17.60;74.20
45537;DHT22;31262;51.978;5.924;2022-10-17T01:09:59;17.70;74.20
45537;DHT22;31262;51.978;5.924;2022-10-17T01:12:27;17.60;74.30
45537;DHT22;31262;51.978;5.924;2022-10-17T01:17:50;17.60;74.40
45537;DHT22;31262;51.978;5.924;2022-10-17T01:22:46;17.60;74.40
45537;DHT22;31262;51.978;5.924;2022-10-17T01:25:18;17.60;74.50
45537;DHT22;31262;51.978;5.924;2022-10-17T01:32:57;17.50;74.60
45537;DHT22;31262;51.978;5.924;2022-10-17T01:35:26;17.50;74.60
45537;DHT22;31262;51.978;5.924;2022-10-17T01:40:35;17.50;74.70
45537;DHT22;31262;51.978;5.924;2022-10-17T01:45:32;17.50;74.80
45537;DHT22;31262;51.978;5.924;2022-10-17T01:48:03;17.50;74.80
45537;DHT22;31262;51.978;5.924;2022-10-17T01:50:33;17.50;74.80
45537;DHT22;31262;51.978;5.924;2022-10-17T01:53:01;17.50;74.80
45537;DHT22;31262;51.978;5.924;2022-10-17T01:55:31;17.50;74.90
45537;DHT22;31262;51.978;5.924;2022-10-17T01:58:00;17.50;75.00
45537;DHT22;31262;51.978;5.924;2022-10-17T02:00:27;17.50;75.00
45537;DHT22;31262;51.978;5.924;2022-10-17T02:02:55;17.50;75.10
45537;DHT22;31262;51.978;5.924;2022-10-17T02:05:27;17.50;75.10
45537;DHT22;31262;51.978;5.924;2022-10-17T02:07:54;17.50;75.20
45537;DHT22;31262;51.978;5.924;2022-10-17T02:10:23;17.40;75.10
45537;DHT22;31262;51.978;5.924;2022-10-17T02:12:54;17.50;75.20
45537;DHT22;31262;51.978;5.924;2022-10-17T02:28:05;17.30;75.40
45537;DHT22;31262;51.978;5.924;2022-10-17T02:30:36;17.30;75.50
45537;DHT22;31262;51.978;5.924;2022-10-17T02:35:33;17.30;75.60
45537;DHT22;31262;51.978;5.924;2022-10-17T02:38:00;17.30;75.60
45537;DHT22;31262;51.978;5.924;2022-10-17T02:40:26;17.30;75.60
45537;DHT22;31262;51.978;5.924;2022-10-17T02:42:54;17.30;75.70
45537;DHT22;31262;51.978;5.924;2022-10-17T02:45:20;17.30;75.70
45537;DHT22;31262;51.978;5.924;2022-10-17T02:47:53;17.30;75.80
45537;DHT22;31262;51.978;5.924;2022-10-17T02:50:21;17.40;75.80
45537;DHT22;31262;51.978;5.924;2022-10-17T02:52:50;17.50;75.80
45537;DHT22;31262;51.978;5.924;2022-10-17T02:55:22;17.60;75.70
45537;DHT22;31262;51.978;5.924;2022-10-17T02:57:53;17.70;75.70
45537;DHT22;31262;51.978;5.924;2022-10-17T03:00:20;17.70;75.50
45537;DHT22;31262;51.978;5.924;2022-10-17T03:02:47;17.60;75.50
45537;DHT22;31262;51.978;5.924;2022-10-17T03:05:20;17.60;75.50
45537;DHT22;31262;51.978;5.924;2022-10-17T03:07:46;17.60;75.60
45537;DHT22;31262;51.978;5.924;2022-10-17T03:10:12;17.70;75.60
45537;DHT22;31262;51.978;5.924;2022-10-17T03:12:38;17.60;75.50
45537;DHT22;31262;51.978;5.924;2022-10-17T03:15:03;17.60;75.60
45537;DHT22;31262;51.978;5.924;2022-10-17T03:17:29;17.60;75.60
45537;DHT22;31262;51.978;5.924;2022-10-17T03:19:54;17.60;75.60
45537;DHT22;31262;51.978;5.924;2022-10-17T03:22:20;17.60;75.70
45537;DHT22;31262;51.978;5.924;2022-10-17T03:24:45;17.60;75.80
45537;DHT22;31262;51.978;5.924;2022-10-17T03:27:11;17.60;76.40
45537;DHT22;31262;51.978;5.924;2022-10-17T03:29:36;17.70;75.90
45537;DHT22;31262;51.978;5.924;2022-10-17T03:32:02;17.70;75.90
45537;DHT22;31262;51.978;5.924;2022-10-17T03:34:27;17.70;75.90
45537;DHT22;31262;51.978;5.924;2022-10-17T03:36:53;17.70;75.90
45537;DHT22;31262;51.978;5.924;2022-10-17T03:39:19;17.70;75.80
45537;DHT22;31262;51.978;5.924;2022-10-17T03:41:44;17.70;75.80
45537;DHT22;31262;51.978;5.924;2022-10-17T03:44:10;17.70;75.80
45537;DHT22;31262;51.978;5.924;2022-10-17T03:46:35;17.70;75.70
45537;DHT22;31262;51.978;5.924;2022-10-17T03:49:01;17.70;75.80
45537;DHT22;31262;51.978;5.924;2022-10-17T03:51:26;17.60;76.40
45537;DHT22;31262;51.978;5.924;2022-10-17T03:53:52;17.60;75.80
45537;DHT22;31262;51.978;5.924;2022-10-17T03:56:18;17.60;75.80
45537;DHT22;31262;51.978;5.924;2022-10-17T03:58:44;17.60;75.80
45537;DHT22;31262;51.978;5.924;2022-10-17T04:01:11;17.60;75.90
45537;DHT22;31262;51.978;5.924;2022-10-17T04:03:37;17.60;75.90
45537;DHT22;31262;51.978;5.924;2022-10-17T04:06:02;17.60;75.90
45537;DHT22;31262;51.978;5.924;2022-10-17T04:08:28;17.60;75.90
45537;DHT22;31262;51.978;5.924;2022-10-17T04:11:04;17.60;76.00
45537;DHT22;31262;51.978;5.924;2022-10-17T04:13:30;17.50;76.00
45537;DHT22;31262;51.978;5.924;2022-10-17T04:15:57;17.50;76.10
45537;DHT22;31262;51.978;5.924;2022-10-17T04:18:22;17.50;76.00
45537;DHT22;31262;51.978;5.924;2022-10-17T04:20:48;17.50;76.00
45537;DHT22;31262;51.978;5.924;2022-10-17T04:23:14;17.50;76.00
45537;DHT22;31262;51.978;5.924;2022-10-17T04:25:39;17.40;75.90
45537;DHT22;31262;51.978;5.924;2022-10-17T04:28:04;17.40;75.90
45537;DHT22;31262;51.978;5.924;2022-10-17T04:30:30;17.40;76.00
45537;DHT22;31262;51.978;5.924;2022-10-17T04:32:56;17.30;76.00
45537;DHT22;31262;51.978;5.924;2022-10-17T04:35:21;17.30;76.10
45537;DHT22;31262;51.978;5.924;2022-10-17T04:37:46;17.20;76.20
45537;DHT22;31262;51.978;5.924;2022-10-17T04:40:12;17.20;76.30
45537;DHT22;31262;51.978;5.924;2022-10-17T04:42:37;17.10;76.30
45537;DHT22;31262;51.978;5.924;2022-10-17T04:45:03;17.10;76.40
45537;DHT22;31262;51.978;5.924;2022-10-17T04:47:29;17.00;76.60
45537;DHT22;31262;51.978;5.924;2022-10-17T04:49:54;17.00;76.70
45537;DHT22;31262;51.978;5.924;2022-10-17T04:52:20;17.00;76.70
45537;DHT22;31262;51.978;5.924;2022-10-17T04:54:45;17.00;76.80
45537;DHT22;31262;51.978;5.924;2022-10-17T04:57:11;17.00;76.80
45537;DHT22;31262;51.978;5.924;2022-10-17T04:59:36;16.90;76.80
45537;DHT22;31262;51.978;5.924;2022-10-17T05:02:02;16.90;76.90
45537;DHT22;31262;51.978;5.924;2022-10-17T05:04:27;16.90;76.80
45537;DHT22;31262;51.978;5.924;2022-10-17T05:06:53;16.90;76.90
45537;DHT22;31262;51.978;5.924;2022-10-17T05:09:18;17.00;76.90
45537;DHT22;31262;51.978;5.924;2022-10-17T05:11:43;16.90;76.90
45537;DHT22;31262;51.978;5.924;2022-10-17T05:14:09;16.90;77.00
45537;DHT22;31262;51.978;5.924;2022-10-17T05:16:34;16.90;77.60
45537;DHT22;31262;51.978;5.924;2022-10-17T05:19:00;16.90;77.00
45537;DHT22;31262;51.978;5.924;2022-10-17T05:21:26;16.80;77.00
45537;DHT22;31262;51.978;5.924;2022-10-17T05:23:52;16.80;77.10
45537;DHT22;31262;51.978;5.924;2022-10-17T05:26:18;16.80;77.10
45537;DHT22;31262;51.978;5.924;2022-10-17T05:28:43;16.80;77.20
45537;DHT22;31262;51.978;5.924;2022-10-17T05:31:09;16.80;77.20
45537;DHT22;31262;51.978;5.924;2022-10-17T05:33:35;16.80;77.10
45537;DHT22;31262;51.978;5.924;2022-10-17T05:36:00;16.80;77.10
45537;DHT22;31262;51.978;5.924;2022-10-17T05:38:26;16.80;77.20
45537;DHT22;31262;51.978;5.924;2022-10-17T05:40:58;16.70;77.20
45537;DHT22;31262;51.978;5.924;2022-10-17T05:43:24;16.70;77.20
45537;DHT22;31262;51.978;5.924;2022-10-17T05:45:50;16.80;77.30
45537;DHT22;31262;51.978;5.924;2022-10-17T05:48:15;16.70;77.30
45537;DHT22;31262;51.978;5.924;2022-10-17T05:50:41;16.70;77.30
45537;DHT22;31262;51.978;5.924;2022-10-17T05:53:06;16.70;77.40
45537;DHT22;31262;51.978;5.924;2022-10-17T05:55:32;16.70;77.40
45537;DHT22;31262;51.978;5.924;2022-10-17T05:57:58;16.70;77.50
45537;DHT22;31262;51.978;5.924;2022-10-17T06:00:24;16.60;78.10
45537;DHT22;31262;51.978;5.924;2022-10-17T06:02:49;16.60;77.50
45537;DHT22;31262;51.978;5.924;2022-10-17T06:05:15;16.70;77.50
45537;DHT22;31262;51.978;5.924;2022-10-17T06:07:40;16.70;77.50
45537;DHT22;31262;51.978;5.924;2022-10-17T06:10:06;16.60;77.40
45537;DHT22;31262;51.978;5.924;2022-10-17T06:12:31;16.70;77.50
45537;DHT22;31262;51.978;5.924;2022-10-17T06:14:57;16.70;77.50
45537;DHT22;31262;51.978;5.924;2022-10-17T06:17:23;16.70;77.60
45537;DHT22;31262;51.978;5.924;2022-10-17T06:19:48;16.70;77.60
45537;DHT22;31262;51.978;5.924;2022-10-17T06:22:14;16.70;77.60
45537;DHT22;31262;51.978;5.924;2022-10-17T06:24:39;16.70;77.70
45537;DHT22;31262;51.978;5.924;2022-10-17T06:27:05;16.70;77.80
45537;DHT22;31262;51.978;5.924;2022-10-17T06:29:30;16.60;77.80
45537;DHT22;31262;51.978;5.924;2022-10-17T06:31:56;16.60;77.90
45537;DHT22;31262;51.978;5.924;2022-10-17T06:34:21;16.70;78.00
45537;DHT22;31262;51.978;5.924;2022-10-17T06:36:47;16.70;78.00
45537;DHT22;31262;51.978;5.924;2022-10-17T06:39:12;16.70;78.00
45537;DHT22;31262;51.978;5.924;2022-10-17T06:41:38;16.70;78.00
45537;DHT22;31262;51.978;5.924;2022-10-17T06:44:05;16.70;78.00
45537;DHT22;31262;51.978;5.924;2022-10-17T06:46:35;16.70;78.00
45537;DHT22;31262;51.978;5.924;2022-10-17T06:49:01;16.70;78.00
45537;DHT22;31262;51.978;5.924;2022-10-17T06:51:26;16.80;78.10
45537;DHT22;31262;51.978;5.924;2022-10-17T06:53:52;16.80;78.10
45537;DHT22;31262;51.978;5.924;2022-10-17T06:56:17;16.80;78.10
45537;DHT22;31262;51.978;5.924;2022-10-17T06:58:43;16.80;78.10
45537;DHT22;31262;51.978;5.924;2022-10-17T07:01:11;16.80;78.20
45537;DHT22;31262;51.978;5.924;2022-10-17T07:03:37;16.90;78.40
45537;DHT22;31262;51.978;5.924;2022-10-17T07:06:03;16.90;78.40
45537;DHT22;31262;51.978;5.924;2022-10-17T07:08:28;16.90;78.40
45537;DHT22;31262;51.978;5.924;2022-10-17T07:10:54;16.90;78.50
45537;DHT22;31262;51.978;5.924;2022-10-17T07:13:20;17.00;78.60
45537;DHT22;31262;51.978;5.924;2022-10-17T07:15:46;17.00;78.60
45537;DHT22;31262;51.978;5.924;2022-10-17T07:18:11;17.00;78.60
45537;DHT22;31262;51.978;5.924;2022-10-17T07:20:37;17.00;78.60
45537;DHT22;31262;51.978;5.924;2022-10-17T07:23:02;17.00;78.70
45537;DHT22;31262;51.978;5.924;2022-10-17T07:25:28;17.10;78.90
45537;DHT22;31262;51.978;5.924;2022-10-17T07:27:54;17.10;78.90
45537;DHT22;31262;51.978;5.924;2022-10-17T07:30:19;17.10;79.00
45537;DHT22;31262;51.978;5.924;2022-10-17T07:32:45;17.30;79.20
45537;DHT22;31262;51.978;5.924;2022-10-17T07:35:10;17.20;79.20
45537;DHT22;31262;51.978;5.924;2022-10-17T07:37:36;17.20;79.30
45537;DHT22;31262;51.978;5.924;2022-10-17T07:40:02;17.20;79.40
45537;DHT22;31262;51.978;5.924;2022-10-17T07:42:28;17.30;79.40
45537;DHT22;31262;51.978;5.924;2022-10-17T07:44:53;17.30;79.40
45537;DHT22;31262;51.978;5.924;2022-10-17T07:47:19;17.40;79.40
45537;DHT22;31262;51.978;5.924;2022-10-17T07:49:45;17.40;79.50
45537;DHT22;31262;51.978;5.924;2022-10-17T07:52:11;17.50;79.60
45537;DHT22;31262;51.978;5.924;2022-10-17T07:54:37;17.50;79.70
45537;DHT22;31262;51.978;5.924;2022-10-17T07:57:02;17.50;79.70
45537;DHT22;31262;51.978;5.924;2022-10-17T07:59:28;17.60;79.80
45537;DHT22;31262;51.978;5.924;2022-10-17T08:01:56;17.60;79.90
45537;DHT22;31262;51.978;5.924;2022-10-17T08:04:23;17.60;80.10
45537;DHT22;31262;51.978;5.924;2022-10-17T08:06:49;17.60;80.20
45537;DHT22;31262;51.978;5.924;2022-10-17T08:09:14;17.60;80.50
45537;DHT22;31262;51.978;5.924;2022-10-17T08:11:40;17.70;80.60
45537;DHT22;31262;51.978;5.924;2022-10-17T08:14:08;17.70;80.70
45537;DHT22;31262;51.978;5.924;2022-10-17T08:16:33;17.70;80.90
45537;DHT22;31262;51.978;5.924;2022-10-17T08:18:59;17.80;81.00
45537;DHT22;31262;51.978;5.924;2022-10-17T08:21:25;17.80;81.00
45537;DHT22;31262;51.978;5.924;2022-10-17T08:23:50;17.80;81.00
45537;DHT22;31262;51.978;5.924;2022-10-17T08:26:16;17.80;81.60
45537;DHT22;31262;51.978;5.924;2022-10-17T08:28:41;17.80;81.60
45537;DHT22;31262;51.978;5.924;2022-10-17T08:31:08;17.90;81.70
45537;DHT22;31262;51.978;5.924;2022-10-17T08:33:35;17.90;82.60
45537;DHT22;31262;51.978;5.924;2022-10-17T08:36:01;17.90;83.20
45537;DHT22;31262;51.978;5.924;2022-10-17T08:38:29;17.90;83.80
45537;DHT22;31262;51.978;5.924;2022-10-17T08:40:56;18.00;84.50
45537;DHT22;31262;51.978;5.924;2022-10-17T08:45:56;18.00;84.50
45537;DHT22;31262;51.978;5.924;2022-10-17T08:48:25;18.00;84.50
45537;DHT22;31262;51.978;5.924;2022-10-17T08:58:44;18.00;84.70
45537;DHT22;31262;51.978;5.924;2022-10-17T09:08:40;18.10;85.60
45537;DHT22;31262;51.978;5.924;2022-10-17T09:18:57;18.10;85.30
45537;DHT22;31262;51.978;5.924;2022-10-17T09:23:50;18.10;85.30
45537;DHT22;31262;51.978;5.924;2022-10-17T09:26:16;18.20;85.30
45537;DHT22;31262;51.978;5.924;2022-10-17T09:28:42;18.20;85.20
45537;DHT22;31262;51.978;5.924;2022-10-17T09:31:24;18.20;85.20
45537;DHT22;31262;51.978;5.924;2022-10-17T09:33:51;18.20;85.30
45537;DHT22;31262;51.978;5.924;2022-10-17T09:36:28;18.20;85.30
45537;DHT22;31262;51.978;5.924;2022-10-17T09:38:55;18.20;85.60
45537;DHT22;31262;51.978;5.924;2022-10-17T09:41:22;18.20;86.00
45537;DHT22;31262;51.978;5.924;2022-10-17T09:43:51;18.10;85.90
45537;DHT22;31262;51.978;5.924;2022-10-17T09:48:54;18.20;86.10
45537;DHT22;31262;51.978;5.924;2022-10-17T09:51:21;18.20;86.50
45537;DHT22;31262;51.978;5.924;2022-10-17T09:53:53;18.20;86.70
45537;DHT22;31262;51.978;5.924;2022-10-17T09:56:19;18.20;86.80
45537;DHT22;31262;51.978;5.924;2022-10-17T09:58:47;18.20;86.90
45537;DHT22;31262;51.978;5.924;2022-10-17T10:03:44;18.20;87.20
45537;DHT22;31262;51.978;5.924;2022-10-17T10:06:12;18.10;87.20
45537;DHT22;31262;51.978;5.924;2022-10-17T10:11:15;18.20;87.30
45537;DHT22;31262;51.978;5.924;2022-10-17T10:13:42;18.20;87.20
45537;DHT22;31262;51.978;5.924;2022-10-17T10:18:39;18.30;87.00
45537;DHT22;31262;51.978;5.924;2022-10-17T10:23:30;18.30;87.10
45537;DHT22;31262;51.978;5.924;2022-10-17T10:25:57;18.30;87.10
45537;DHT22;31262;51.978;5.924;2022-10-17T10:28:27;18.30;87.00
45537;DHT22;31262;51.978;5.924;2022-10-17T10:30:54;18.30;87.00
45537;DHT22;31262;51.978;5.924;2022-10-17T10:33:21;18.30;87.10
45537;DHT22;31262;51.978;5.924;2022-10-17T10:35:54;18.30;87.30
45537;DHT22;31262;51.978;5.924;2022-10-17T10:38:20;18.40;87.30
45537;DHT22;31262;51.978;5.924;2022-10-17T10:40:50;18.40;87.30
45537;DHT22;31262;51.978;5.924;2022-10-17T10:43:36;18.40;87.30
45537;DHT22;31262;51.978;5.924;2022-10-17T10:46:15;18.40;87.50
45537;DHT22;31262;51.978;5.924;2022-10-17T10:48:48;18.40;87.50
45537;DHT22;31262;51.978;5.924;2022-10-17T10:51:15;18.40;87.50
45537;DHT22;31262;51.978;5.924;2022-10-17T10:56:51;18.40;87.60
45537;DHT22;31262;51.978;5.924;2022-10-17T10:59:14;18.50;87.50
45537;DHT22;31262;51.978;5.924;2022-10-17T11:06:46;18.60;87.40
45537;DHT22;31262;51.978;5.924;2022-10-17T11:11:45;18.60;87.30
45537;DHT22;31262;51.978;5.924;2022-10-17T11:14:13;18.60;87.30
45537;DHT22;31262;51.978;5.924;2022-10-17T11:16:43;18.60;87.30
45537;DHT22;31262;51.978;5.924;2022-10-17T11:20:14;18.60;87.30
45537;DHT22;31262;51.978;5.924;2022-10-17T11:22:15;18.60;87.30
45537;DHT22;31262;51.978;5.924;2022-10-17T11:24:47;18.60;87.40
45537;DHT22;31262;51.978;5.924;2022-10-17T11:27:14;18.60;87.50
45537;DHT22;31262;51.978;5.924;2022-10-17T11:29:40;18.60;87.50
45537;DHT22;31262;51.978;5.924;2022-10-17T11:32:48;18.60;87.50
45537;DHT22;31262;51.978;5.924;2022-10-17T11:35:02;18.60;87.50
45537;DHT22;31262;51.978;5.924;2022-10-17T11:37:32;18.60;87.40
45537;DHT22;31262;51.978;5.924;2022-10-17T11:40:01;18.60;87.40
45537;DHT22;31262;51.978;5.924;2022-10-17T11:42:29;18.60;87.40
45537;DHT22;31262;51.978;5.924;2022-10-17T11:44:59;18.60;87.40
45537;DHT22;31262;51.978;5.924;2022-10-17T11:50:30;18.70;87.70
45537;DHT22;31262;51.978;5.924;2022-10-17T11:53:01;18.70;87.70
45537;DHT22;31262;51.978;5.924;2022-10-17T11:55:28;18.70;87.70
45537;DHT22;31262;51.978;5.924;2022-10-17T11:58:08;18.70;87.70
45537;DHT22;31262;51.978;5.924;2022-10-17T12:00:41;18.70;87.70
45537;DHT22;31262;51.978;5.924;2022-10-17T12:05:56;18.80;87.90
45537;DHT22;31262;51.978;5.924;2022-10-17T12:15:52;18.70;88.20
45537;DHT22;31262;51.978;5.924;2022-10-17T12:18:17;18.70;88.20
45537;DHT22;31262;51.978;5.924;2022-10-17T12:20:45;18.80;88.20
45537;DHT22;31262;51.978;5.924;2022-10-17T12:23:20;18.70;88.20
45537;DHT22;31262;51.978;5.924;2022-10-17T12:33:29;18.70;88.40
45537;DHT22;31262;51.978;5.924;2022-10-17T12:38:38;18.70;88.50
45537;DHT22;31262;51.978;5.924;2022-10-17T12:41:04;18.70;88.40
45537;DHT22;31262;51.978;5.924;2022-10-17T12:45:58;18.70;88.60
45537;DHT22;31262;51.978;5.924;2022-10-17T12:51:06;18.70;88.70
45537;DHT22;31262;51.978;5.924;2022-10-17T12:56:14;18.70;88.90
45537;DHT22;31262;51.978;5.924;2022-10-17T12:58:49;18.60;88.90
45537;DHT22;31262;51.978;5.924;2022-10-17T13:01:26;18.70;89.00
45537;DHT22;31262;51.978;5.924;2022-10-17T13:03:52;18.70;89.10
45537;DHT22;31262;51.978;5.924;2022-10-17T13:06:19;18.70;89.00
45537;DHT22;31262;51.978;5.924;2022-10-17T13:08:47;18.70;89.10
45537;DHT22;31262;51.978;5.924;2022-10-17T13:11:13;18.70;89.10
45537;DHT22;31262;51.978;5.924;2022-10-17T13:13:46;18.70;89.10
45537;DHT22;31262;51.978;5.924;2022-10-17T13:18:57;18.80;89.10
45537;DHT22;31262;51.978;5.924;2022-10-17T13:21:23;18.80;89.10
45537;DHT22;31262;51.978;5.924;2022-10-17T13:23:49;18.80;89.10
45537;DHT22;31262;51.978;5.924;2022-10-17T13:26:21;18.80;89.10
45537;DHT22;31262;51.978;5.924;2022-10-17T13:28:59;18.80;89.10
45537;DHT22;31262;51.978;5.924;2022-10-17T13:33:55;18.80;89.20
45537;DHT22;31262;51.978;5.924;2022-10-17T13:36:20;18.80;89.20
45537;DHT22;31262;51.978;5.924;2022-10-17T13:38:46;18.80;89.20
45537;DHT22;31262;51.978;5.924;2022-10-17T13:41:12;18.80;89.20
45537;DHT22;31262;51.978;5.924;2022-10-17T13:43:38;18.80;89.30
45537;DHT22;31262;51.978;5.924;2022-10-17T13:46:04;18.80;89.30
45537;DHT22;31262;51.978;5.924;2022-10-17T13:48:32;18.80;89.30
45537;DHT22;31262;51.978;5.924;2022-10-17T13:51:01;18.80;89.30
45537;DHT22;31262;51.978;5.924;2022-10-17T13:53:34;18.80;89.30
45537;DHT22;31262;51.978;5.924;2022-10-17T13:56:01;18.80;89.40
45537;DHT22;31262;51.978;5.924;2022-10-17T13:58:36;18.80;89.40
45537;DHT22;31262;51.978;5.924;2022-10-17T14:01:03;18.80;89.40
45537;DHT22;31262;51.978;5.924;2022-10-17T14:03:29;18.80;89.40
45537;DHT22;31262;51.978;5.924;2022-10-17T14:06:13;18.90;89.40
45537;DHT22;31262;51.978;5.924;2022-10-17T14:08:51;18.90;89.30
45537;DHT22;31262;51.978;5.924;2022-10-17T14:11:21;18.90;89.20
45537;DHT22;31262;51.978;5.924;2022-10-17T14:13:47;19.00;89.00
45537;DHT22;31262;51.978;5.924;2022-10-17T14:16:13;18.90;88.90
45537;DHT22;31262;51.978;5.924;2022-10-17T14:18:39;19.00;88.90
45537;DHT22;31262;51.978;5.924;2022-10-17T14:21:05;19.00;88.90
45537;DHT22;31262;51.978;5.924;2022-10-17T14:23:37;19.00;88.80
45537;DHT22;31262;51.978;5.924;2022-10-17T14:26:07;19.00;88.70
45537;DHT22;31262;51.978;5.924;2022-10-17T14:28:33;19.10;88.70
45537;DHT22;31262;51.978;5.924;2022-10-17T14:33:43;19.10;88.60
45537;DHT22;31262;51.978;5.924;2022-10-17T14:36:09;19.10;88.50
45537;DHT22;31262;51.978;5.924;2022-10-17T14:38:34;19.10;88.50
45537;DHT22;31262;51.978;5.924;2022-10-17T14:41:22;19.10;88.40
45537;DHT22;31262;51.978;5.924;2022-10-17T14:43:51;19.20;88.40
45537;DHT22;31262;51.978;5.924;2022-10-17T14:46:16;19.20;88.30
45537;DHT22;31262;51.978;5.924;2022-10-17T14:48:42;19.30;88.30
45537;DHT22;31262;51.978;5.924;2022-10-17T14:53:33;19.20;88.10
45537;DHT22;31262;51.978;5.924;2022-10-17T14:56:00;19.30;88.10
45537;DHT22;31262;51.978;5.924;2022-10-17T14:58:26;19.20;88.00
45537;DHT22;31262;51.978;5.924;2022-10-17T15:00:52;19.30;88.00
45537;DHT22;31262;51.978;5.924;2022-10-17T15:03:18;19.30;88.00
45537;DHT22;31262;51.978;5.924;2022-10-17T15:05:44;19.30;87.90
45537;DHT22;31262;51.978;5.924;2022-10-17T15:08:13;19.30;87.80
45537;DHT22;31262;51.978;5.924;2022-10-17T15:10:39;19.30;87.70
45537;DHT22;31262;51.978;5.924;2022-10-17T15:13:06;19.30;87.70
45537;DHT22;31262;51.978;5.924;2022-10-17T15:15:32;19.30;87.60
45537;DHT22;31262;51.978;5.924;2022-10-17T15:17:57;19.20;87.50
45537;DHT22;31262;51.978;5.924;2022-10-17T15:20:23;19.20;87.50
45537;DHT22;31262;51.978;5.924;2022-10-17T15:22:51;19.20;87.50
45537;DHT22;31262;51.978;5.924;2022-10-17T15:25:18;19.10;87.50
45537;DHT22;31262;51.978;5.924;2022-10-17T15:27:43;19.10;87.50
45537;DHT22;31262;51.978;5.924;2022-10-17T15:30:19;19.10;87.50
45537;DHT22;31262;51.978;5.924;2022-10-17T15:32:45;19.10;87.50
45537;DHT22;31262;51.978;5.924;2022-10-17T15:35:11;19.20;87.60
45537;DHT22;31262;51.978;5.924;2022-10-17T15:37:36;19.10;87.50
45537;DHT22;31262;51.978;5.924;2022-10-17T15:40:03;19.10;87.40
45537;DHT22;31262;51.978;5.924;2022-10-17T15:42:29;19.10;87.40
45537;DHT22;31262;51.978;5.924;2022-10-17T15:44:55;19.10;87.50
45537;DHT22;31262;51.978;5.924;2022-10-17T15:47:22;19.20;87.50
45537;DHT22;31262;51.978;5.924;2022-10-17T15:49:48;19.10;87.40
45537;DHT22;31262;51.978;5.924;2022-10-17T15:52:14;19.10;87.40
45537;DHT22;31262;51.978;5.924;2022-10-17T15:54:40;19.20;87.30
45537;DHT22;31262;51.978;5.924;2022-10-17T15:57:07;19.20;87.20
45537;DHT22;31262;51.978;5.924;2022-10-17T15:59:35;19.20;87.20
45537;DHT22;31262;51.978;5.924;2022-10-17T16:02:00;19.10;87.10
45537;DHT22;31262;51.978;5.924;2022-10-17T16:04:26;19.10;87.20
45537;DHT22;31262;51.978;5.924;2022-10-17T16:06:53;19.10;87.20
45537;DHT22;31262;51.978;5.924;2022-10-17T16:09:18;19.10;87.10
45537;DHT22;31262;51.978;5.924;2022-10-17T16:11:44;19.10;87.10
45537;DHT22;31262;51.978;5.924;2022-10-17T16:14:10;19.10;87.10
45537;DHT22;31262;51.978;5.924;2022-10-17T16:16:36;19.00;87.10
45537;DHT22;31262;51.978;5.924;2022-10-17T16:19:02;19.00;87.20
45537;DHT22;31262;51.978;5.924;2022-10-17T16:21:29;19.00;87.20
45537;DHT22;31262;51.978;5.924;2022-10-17T16:23:55;19.00;87.20
45537;DHT22;31262;51.978;5.924;2022-10-17T16:26:21;19.00;87.20
45537;DHT22;31262;51.978;5.924;2022-10-17T16:28:46;19.00;87.60
45537;DHT22;31262;51.978;5.924;2022-10-17T16:31:22;19.00;87.20
45537;DHT22;31262;51.978;5.924;2022-10-17T16:33:50;19.00;87.20
45537;DHT22;31262;51.978;5.924;2022-10-17T16:36:17;19.00;87.10
45537;DHT22;31262;51.978;5.924;2022-10-17T16:38:42;18.90;87.10
45537;DHT22;31262;51.978;5.924;2022-10-17T16:41:21;18.90;87.10
45537;DHT22;31262;51.978;5.924;2022-10-17T16:43:48;18.90;87.20
45537;DHT22;31262;51.978;5.924;2022-10-17T16:46:14;18.90;87.30
45537;DHT22;31262;51.978;5.924;2022-10-17T16:48:40;18.80;87.30
45537;DHT22;31262;51.978;5.924;2022-10-17T16:51:05;18.80;87.30
45537;DHT22;31262;51.978;5.924;2022-10-17T16:53:31;18.80;87.30
45537;DHT22;31262;51.978;5.924;2022-10-17T16:56:00;18.80;87.40
45537;DHT22;31262;51.978;5.924;2022-10-17T16:58:26;18.80;87.30
45537;DHT22;31262;51.978;5.924;2022-10-17T17:00:55;18.80;87.30
45537;DHT22;31262;51.978;5.924;2022-10-17T17:03:24;18.80;87.30
45537;DHT22;31262;51.978;5.924;2022-10-17T17:05:50;18.80;87.30
45537;DHT22;31262;51.978;5.924;2022-10-17T17:08:16;18.70;87.30
45537;DHT22;31262;51.978;5.924;2022-10-17T17:10:47;18.70;87.40
45537;DHT22;31262;51.978;5.924;2022-10-17T17:13:18;18.70;87.50
45537;DHT22;31262;51.978;5.924;2022-10-17T17:15:43;18.80;87.60
45537;DHT22;31262;51.978;5.924;2022-10-17T17:18:10;18.70;88.20
45537;DHT22;31262;51.978;5.924;2022-10-17T17:20:36;18.80;87.60
45537;DHT22;31262;51.978;5.924;2022-10-17T17:23:02;18.70;87.60
45537;DHT22;31262;51.978;5.924;2022-10-17T17:25:27;18.70;87.50
45537;DHT22;31262;51.978;5.924;2022-10-17T17:27:53;18.70;87.50
45537;DHT22;31262;51.978;5.924;2022-10-17T17:30:18;18.80;87.50
45537;DHT22;31262;51.978;5.924;2022-10-17T17:32:44;18.70;87.50
45537;DHT22;31262;51.978;5.924;2022-10-17T17:35:09;18.80;87.50